sensor_id;sensor_type;location;lat;lon;timestamp;P1;durP1;ratioP1;P2;durP2;ratioP2
59585;SDS011;45408;52.686;7.310;2024-03-08T00:00:47;21.58;;;10.60;;
59585;SDS011;45408;52.686;7.310;2024-03-08T00:03:13;23.65;;;10.80;;
59585;SDS011;45408;52.686;7.310;2024-03-08T00:05:40;23.80;;;11.50;;
59585;SDS011;45408;52.686;7.310;2024-03-08T00:08:08;24.52;;;11.27;;
59585;SDS011;45408;52.686;7.310;2024-03-08T00:10:37;20.23;;;10.73;;
59585;SDS011;45408;52.686;7.310;2024-03-08T00:13:05;21.65;;;11.45;;
59585;SDS011;45408;52.686;7.310;2024-03-08T00:15:31;21.20;;;10.45;;
59585;SDS011;45408;52.686;7.310;2024-03-08T00:17:58;31.02;;;10.85;;
59585;SDS011;45408;52.686;7.310;2024-03-08T00:20:25;20.40;;;11.48;;
59585;SDS011;45408;52.686;7.310;2024-03-08T00:22:54;24.90;;;11.85;;
59585;SDS011;45408;52.686;7.310;2024-03-08T00:25:24;26.77;;;10.30;;
59585;SDS011;45408;52.686;7.310;2024-03-08T00:27:51;28.02;;;11.65;;
59585;SDS011;45408;52.686;7.310;2024-03-08T00:30:24;23.85;;;10.35;;
59585;SDS011;45408;52.686;7.310;2024-03-08T00:32:51;22.70;;;10.80;;
59585;SDS011;45408;52.686;7.310;2024-03-08T00:35:18;21.73;;;11.88;;
59585;SDS011;45408;52.686;7.310;2024-03-08T00:37:44;22.95;;;10.75;;
59585;SDS011;45408;52.686;7.310;2024-03-08T00:40:14;23.92;;;10.63;;
59585;SDS011;45408;52.686;7.310;2024-03-08T00:42:41;21.92;;;10.50;;
59585;SDS011;45408;52.686;7.310;2024-03-08T00:45:10;25.17;;;12.07;;
59585;SDS011;45408;52.686;7.310;2024-03-08T00:47:37;23.57;;;10.87;;
59585;SDS011;45408;52.686;7.310;2024-03-08T00:50:06;23.20;;;10.82;;
59585;SDS011;45408;52.686;7.310;2024-03-08T00:52:34;19.17;;;10.65;;
59585;SDS011;45408;52.686;7.310;2024-03-08T00:55:01;25.23;;;10.05;;
59585;SDS011;45408;52.686;7.310;2024-03-08T00:57:28;23.98;;;12.00;;
59585;SDS011;45408;52.686;7.310;2024-03-08T00:59:54;22.95;;;10.60;;
59585;SDS011;45408;52.686;7.310;2024-03-08T01:02:22;24.33;;;11.23;;
59585;SDS011;45408;52.686;7.310;2024-03-08T01:04:49;23.30;;;11.38;;
59585;SDS011;45408;52.686;7.310;2024-03-08T01:07:16;25.83;;;11.98;;
59585;SDS011;45408;52.686;7.310;2024-03-08T01:09:43;21.55;;;10.43;;
59585;SDS011;45408;52.686;7.310;2024-03-08T01:12:09;19.67;;;9.93;;
59585;SDS011;45408;52.686;7.310;2024-03-08T01:14:37;20.50;;;11.55;;
59585;SDS011;45408;52.686;7.310;2024-03-08T01:17:03;23.35;;;10.10;;
59585;SDS011;45408;52.686;7.310;2024-03-08T01:19:30;22.85;;;11.50;;
59585;SDS011;45408;52.686;7.310;2024-03-08T01:21:58;20.00;;;10.50;;
59585;SDS011;45408;52.686;7.310;2024-03-08T01:24:25;24.10;;;12.25;;
59585;SDS011;45408;52.686;7.310;2024-03-08T01:26:51;20.75;;;10.50;;
59585;SDS011;45408;52.686;7.310;2024-03-08T01:29:18;23.20;;;12.25;;
59585;SDS011;45408;52.686;7.310;2024-03-08T01:31:44;24.15;;;11.75;;
59585;SDS011;45408;52.686;7.310;2024-03-08T01:34:11;28.52;;;12.00;;
59585;SDS011;45408;52.686;7.310;2024-03-08T01:36:37;21.33;;;10.88;;
59585;SDS011;45408;52.686;7.310;2024-03-08T01:39:04;18.80;;;10.80;;
59585;SDS011;45408;52.686;7.310;2024-03-08T01:41:35;22.77;;;10.27;;
59585;SDS011;45408;52.686;7.310;2024-03-08T01:44:02;24.10;;;11.70;;
59585;SDS011;45408;52.686;7.310;2024-03-08T01:46:29;22.50;;;11.80;;
59585;SDS011;45408;52.686;7.310;2024-03-08T01:48:56;22.52;;;11.35;;
59585;SDS011;45408;52.686;7.310;2024-03-08T01:51:23;19.08;;;10.48;;
59585;SDS011;45408;52.686;7.310;2024-03-08T01:53:50;19.80;;;10.40;;
59585;SDS011;45408;52.686;7.310;2024-03-08T01:56:17;23.25;;;10.98;;
59585;SDS011;45408;52.686;7.310;2024-03-08T01:58:44;27.85;;;11.98;;
59585;SDS011;45408;52.686;7.310;2024-03-08T02:01:11;27.05;;;9.98;;
59585;SDS011;45408;52.686;7.310;2024-03-08T02:04:46;25.10;;;11.43;;
59585;SDS011;45408;52.686;7.310;2024-03-08T02:07:42;22.58;;;10.73;;
59585;SDS011;45408;52.686;7.310;2024-03-08T02:10:10;20.02;;;10.88;;
59585;SDS011;45408;52.686;7.310;2024-03-08T02:12:38;23.20;;;11.65;;
59585;SDS011;45408;52.686;7.310;2024-03-08T02:16:06;26.63;;;11.35;;
59585;SDS011;45408;52.686;7.310;2024-03-08T02:18:34;21.52;;;10.35;;
59585;SDS011;45408;52.686;7.310;2024-03-08T02:21:02;25.02;;;12.43;;
59585;SDS011;45408;52.686;7.310;2024-03-08T02:23:30;23.45;;;11.27;;
59585;SDS011;45408;52.686;7.310;2024-03-08T02:25:56;21.88;;;11.40;;
59585;SDS011;45408;52.686;7.310;2024-03-08T02:28:23;21.35;;;11.25;;
59585;SDS011;45408;52.686;7.310;2024-03-08T02:30:51;22.00;;;10.48;;
59585;SDS011;45408;52.686;7.310;2024-03-08T02:33:22;23.48;;;11.30;;
59585;SDS011;45408;52.686;7.310;2024-03-08T02:35:50;24.20;;;11.40;;
59585;SDS011;45408;52.686;7.310;2024-03-08T02:38:20;23.25;;;11.73;;
59585;SDS011;45408;52.686;7.310;2024-03-08T02:40:48;24.77;;;11.80;;
59585;SDS011;45408;52.686;7.310;2024-03-08T02:43:16;21.98;;;11.43;;
59585;SDS011;45408;52.686;7.310;2024-03-08T02:45:44;23.95;;;11.35;;
59585;SDS011;45408;52.686;7.310;2024-03-08T02:48:11;23.15;;;12.10;;
59585;SDS011;45408;52.686;7.310;2024-03-08T02:50:39;19.50;;;10.75;;
59585;SDS011;45408;52.686;7.310;2024-03-08T02:53:58;20.95;;;11.52;;
59585;SDS011;45408;52.686;7.310;2024-03-08T02:56:24;22.52;;;12.00;;
59585;SDS011;45408;52.686;7.310;2024-03-08T02:58:53;24.98;;;11.77;;
59585;SDS011;45408;52.686;7.310;2024-03-08T03:01:20;16.75;;;9.95;;
59585;SDS011;45408;52.686;7.310;2024-03-08T03:03:47;24.00;;;13.48;;
59585;SDS011;45408;52.686;7.310;2024-03-08T03:06:14;18.55;;;9.77;;
59585;SDS011;45408;52.686;7.310;2024-03-08T03:08:41;23.92;;;12.65;;
59585;SDS011;45408;52.686;7.310;2024-03-08T03:11:11;18.65;;;10.68;;
59585;SDS011;45408;52.686;7.310;2024-03-08T03:13:39;21.95;;;11.07;;
59585;SDS011;45408;52.686;7.310;2024-03-08T03:16:08;23.45;;;12.25;;
59585;SDS011;45408;52.686;7.310;2024-03-08T03:18:46;24.30;;;12.30;;
59585;SDS011;45408;52.686;7.310;2024-03-08T03:21:13;23.77;;;11.85;;
59585;SDS011;45408;52.686;7.310;2024-03-08T03:23:40;27.40;;;13.02;;
59585;SDS011;45408;52.686;7.310;2024-03-08T03:26:08;30.23;;;12.05;;
59585;SDS011;45408;52.686;7.310;2024-03-08T03:28:38;27.85;;;12.93;;
59585;SDS011;45408;52.686;7.310;2024-03-08T03:31:07;21.88;;;11.25;;
59585;SDS011;45408;52.686;7.310;2024-03-08T03:33:36;24.50;;;12.88;;
59585;SDS011;45408;52.686;7.310;2024-03-08T03:36:03;24.80;;;12.18;;
59585;SDS011;45408;52.686;7.310;2024-03-08T03:38:31;22.53;;;11.37;;
59585;SDS011;45408;52.686;7.310;2024-03-08T03:40:58;19.48;;;11.80;;
59585;SDS011;45408;52.686;7.310;2024-03-08T03:43:30;20.60;;;11.45;;
59585;SDS011;45408;52.686;7.310;2024-03-08T03:45:57;30.98;;;12.25;;
59585;SDS011;45408;52.686;7.310;2024-03-08T03:48:23;22.25;;;10.68;;
59585;SDS011;45408;52.686;7.310;2024-03-08T03:50:50;21.15;;;12.23;;
59585;SDS011;45408;52.686;7.310;2024-03-08T03:53:17;21.38;;;10.77;;
59585;SDS011;45408;52.686;7.310;2024-03-08T03:55:43;22.58;;;12.48;;
59585;SDS011;45408;52.686;7.310;2024-03-08T03:58:10;23.75;;;11.68;;
59585;SDS011;45408;52.686;7.310;2024-03-08T04:00:37;17.88;;;10.65;;
59585;SDS011;45408;52.686;7.310;2024-03-08T04:03:04;19.00;;;10.85;;
59585;SDS011;45408;52.686;7.310;2024-03-08T04:05:31;21.50;;;11.10;;
59585;SDS011;45408;52.686;7.310;2024-03-08T04:07:58;20.45;;;11.30;;
59585;SDS011;45408;52.686;7.310;2024-03-08T04:10:24;26.10;;;12.05;;
59585;SDS011;45408;52.686;7.310;2024-03-08T04:12:51;24.67;;;12.40;;
59585;SDS011;45408;52.686;7.310;2024-03-08T04:15:18;19.83;;;10.65;;
59585;SDS011;45408;52.686;7.310;2024-03-08T04:17:45;29.65;;;12.70;;
59585;SDS011;45408;52.686;7.310;2024-03-08T04:20:13;22.33;;;11.77;;
59585;SDS011;45408;52.686;7.310;2024-03-08T04:22:40;27.35;;;12.82;;
59585;SDS011;45408;52.686;7.310;2024-03-08T04:25:08;25.55;;;12.93;;
59585;SDS011;45408;52.686;7.310;2024-03-08T04:27:36;24.20;;;11.57;;
59585;SDS011;45408;52.686;7.310;2024-03-08T04:30:02;22.35;;;11.60;;
59585;SDS011;45408;52.686;7.310;2024-03-08T04:32:30;30.48;;;12.98;;
59585;SDS011;45408;52.686;7.310;2024-03-08T04:34:59;17.02;;;9.18;;
59585;SDS011;45408;52.686;7.310;2024-03-08T04:37:28;27.25;;;12.38;;
59585;SDS011;45408;52.686;7.310;2024-03-08T04:39:58;21.98;;;10.80;;
59585;SDS011;45408;52.686;7.310;2024-03-08T04:42:25;32.17;;;12.95;;
59585;SDS011;45408;52.686;7.310;2024-03-08T04:44:53;25.30;;;11.98;;
59585;SDS011;45408;52.686;7.310;2024-03-08T04:47:20;23.95;;;11.10;;
59585;SDS011;45408;52.686;7.310;2024-03-08T04:49:47;26.80;;;13.60;;
59585;SDS011;45408;52.686;7.310;2024-03-08T04:52:14;29.45;;;12.63;;
59585;SDS011;45408;52.686;7.310;2024-03-08T04:54:40;24.08;;;11.20;;
59585;SDS011;45408;52.686;7.310;2024-03-08T04:57:07;23.27;;;11.13;;
59585;SDS011;45408;52.686;7.310;2024-03-08T04:59:35;25.73;;;13.35;;
59585;SDS011;45408;52.686;7.310;2024-03-08T05:02:02;23.90;;;11.48;;
59585;SDS011;45408;52.686;7.310;2024-03-08T05:04:29;28.67;;;11.10;;
59585;SDS011;45408;52.686;7.310;2024-03-08T05:06:55;20.45;;;11.75;;
59585;SDS011;45408;52.686;7.310;2024-03-08T05:09:22;24.73;;;11.60;;
59585;SDS011;45408;52.686;7.310;2024-03-08T05:11:49;23.15;;;10.52;;
59585;SDS011;45408;52.686;7.310;2024-03-08T05:14:16;25.88;;;11.25;;
59585;SDS011;45408;52.686;7.310;2024-03-08T05:16:44;19.92;;;11.02;;
59585;SDS011;45408;52.686;7.310;2024-03-08T05:19:18;25.00;;;12.60;;
59585;SDS011;45408;52.686;7.310;2024-03-08T05:21:45;22.50;;;11.48;;
59585;SDS011;45408;52.686;7.310;2024-03-08T05:24:13;26.73;;;12.80;;
59585;SDS011;45408;52.686;7.310;2024-03-08T05:26:44;25.92;;;12.32;;
59585;SDS011;45408;52.686;7.310;2024-03-08T05:29:19;28.13;;;12.88;;
59585;SDS011;45408;52.686;7.310;2024-03-08T05:31:50;26.70;;;12.23;;
59585;SDS011;45408;52.686;7.310;2024-03-08T05:34:22;27.58;;;11.88;;
59585;SDS011;45408;52.686;7.310;2024-03-08T05:36:49;28.10;;;12.88;;
59585;SDS011;45408;52.686;7.310;2024-03-08T05:39:18;31.23;;;13.47;;
59585;SDS011;45408;52.686;7.310;2024-03-08T05:41:54;22.60;;;12.15;;
59585;SDS011;45408;52.686;7.310;2024-03-08T05:44:22;28.90;;;13.13;;
59585;SDS011;45408;52.686;7.310;2024-03-08T05:46:50;25.77;;;13.30;;
59585;SDS011;45408;52.686;7.310;2024-03-08T05:49:17;27.20;;;12.32;;
59585;SDS011;45408;52.686;7.310;2024-03-08T05:51:44;24.33;;;12.63;;
59585;SDS011;45408;52.686;7.310;2024-03-08T05:54:11;23.58;;;13.00;;
59585;SDS011;45408;52.686;7.310;2024-03-08T05:56:42;28.35;;;12.98;;
59585;SDS011;45408;52.686;7.310;2024-03-08T05:59:11;28.80;;;12.98;;
59585;SDS011;45408;52.686;7.310;2024-03-08T06:01:38;29.02;;;12.52;;
59585;SDS011;45408;52.686;7.310;2024-03-08T06:04:07;25.85;;;12.90;;
59585;SDS011;45408;52.686;7.310;2024-03-08T06:06:33;32.13;;;13.57;;
59585;SDS011;45408;52.686;7.310;2024-03-08T06:09:00;23.42;;;12.48;;
59585;SDS011;45408;52.686;7.310;2024-03-08T06:11:26;25.75;;;12.43;;
59585;SDS011;45408;52.686;7.310;2024-03-08T06:13:54;25.27;;;12.00;;
59585;SDS011;45408;52.686;7.310;2024-03-08T06:16:26;27.52;;;13.82;;
59585;SDS011;45408;52.686;7.310;2024-03-08T06:18:58;22.10;;;12.00;;
59585;SDS011;45408;52.686;7.310;2024-03-08T06:21:25;26.63;;;12.07;;
59585;SDS011;45408;52.686;7.310;2024-03-08T06:23:54;26.17;;;11.48;;
59585;SDS011;45408;52.686;7.310;2024-03-08T06:26:21;35.65;;;14.43;;
59585;SDS011;45408;52.686;7.310;2024-03-08T06:28:48;25.52;;;12.63;;
59585;SDS011;45408;52.686;7.310;2024-03-08T06:31:15;27.27;;;12.05;;
59585;SDS011;45408;52.686;7.310;2024-03-08T06:33:41;26.73;;;12.82;;
59585;SDS011;45408;52.686;7.310;2024-03-08T06:36:11;28.50;;;13.45;;
59585;SDS011;45408;52.686;7.310;2024-03-08T06:38:38;23.83;;;12.70;;
59585;SDS011;45408;52.686;7.310;2024-03-08T06:41:09;26.65;;;13.10;;
59585;SDS011;45408;52.686;7.310;2024-03-08T06:43:45;28.60;;;13.45;;
59585;SDS011;45408;52.686;7.310;2024-03-08T06:46:14;25.27;;;13.45;;
59585;SDS011;45408;52.686;7.310;2024-03-08T06:48:41;42.67;;;13.50;;
59585;SDS011;45408;52.686;7.310;2024-03-08T06:51:07;27.02;;;13.60;;
59585;SDS011;45408;52.686;7.310;2024-03-08T06:53:34;26.08;;;12.73;;
59585;SDS011;45408;52.686;7.310;2024-03-08T06:56:05;23.05;;;11.13;;
59585;SDS011;45408;52.686;7.310;2024-03-08T06:58:31;21.20;;;11.35;;
59585;SDS011;45408;52.686;7.310;2024-03-08T07:00:58;27.50;;;13.77;;
59585;SDS011;45408;52.686;7.310;2024-03-08T07:03:27;28.17;;;13.02;;
59585;SDS011;45408;52.686;7.310;2024-03-08T07:05:56;28.40;;;14.07;;
59585;SDS011;45408;52.686;7.310;2024-03-08T07:08:24;25.33;;;13.60;;
59585;SDS011;45408;52.686;7.310;2024-03-08T07:10:53;27.77;;;12.98;;
59585;SDS011;45408;52.686;7.310;2024-03-08T07:13:20;30.80;;;14.10;;
59585;SDS011;45408;52.686;7.310;2024-03-08T07:15:47;30.83;;;13.15;;
59585;SDS011;45408;52.686;7.310;2024-03-08T07:18:14;26.27;;;13.18;;
59585;SDS011;45408;52.686;7.310;2024-03-08T07:20:41;24.20;;;13.38;;
59585;SDS011;45408;52.686;7.310;2024-03-08T07:23:09;31.25;;;12.50;;
59585;SDS011;45408;52.686;7.310;2024-03-08T07:25:36;26.30;;;14.32;;
59585;SDS011;45408;52.686;7.310;2024-03-08T07:28:05;27.15;;;12.65;;
59585;SDS011;45408;52.686;7.310;2024-03-08T07:30:35;24.40;;;12.38;;
59585;SDS011;45408;52.686;7.310;2024-03-08T07:33:11;22.35;;;10.82;;
59585;SDS011;45408;52.686;7.310;2024-03-08T07:35:38;31.45;;;14.98;;
59585;SDS011;45408;52.686;7.310;2024-03-08T07:38:05;28.80;;;12.98;;
59585;SDS011;45408;52.686;7.310;2024-03-08T07:40:36;30.20;;;15.02;;
59585;SDS011;45408;52.686;7.310;2024-03-08T07:43:06;27.08;;;14.45;;
59585;SDS011;45408;52.686;7.310;2024-03-08T07:45:33;29.30;;;14.20;;
59585;SDS011;45408;52.686;7.310;2024-03-08T07:48:02;25.35;;;13.57;;
59585;SDS011;45408;52.686;7.310;2024-03-08T07:50:29;30.17;;;13.98;;
59585;SDS011;45408;52.686;7.310;2024-03-08T07:52:56;27.58;;;14.07;;
59585;SDS011;45408;52.686;7.310;2024-03-08T07:55:22;28.90;;;13.77;;
59585;SDS011;45408;52.686;7.310;2024-03-08T07:57:50;27.87;;;12.67;;
59585;SDS011;45408;52.686;7.310;2024-03-08T08:00:17;26.23;;;13.82;;
59585;SDS011;45408;52.686;7.310;2024-03-08T08:02:44;33.17;;;14.20;;
59585;SDS011;45408;52.686;7.310;2024-03-08T08:05:15;25.90;;;12.93;;
59585;SDS011;45408;52.686;7.310;2024-03-08T08:07:44;31.27;;;15.02;;
59585;SDS011;45408;52.686;7.310;2024-03-08T08:10:13;29.40;;;13.35;;
59585;SDS011;45408;52.686;7.310;2024-03-08T08:12:44;24.08;;;14.45;;
59585;SDS011;45408;52.686;7.310;2024-03-08T08:15:12;33.08;;;15.50;;
59585;SDS011;45408;52.686;7.310;2024-03-08T08:17:39;26.90;;;12.15;;
59585;SDS011;45408;52.686;7.310;2024-03-08T08:20:05;30.73;;;16.13;;
59585;SDS011;45408;52.686;7.310;2024-03-08T08:22:32;38.50;;;18.73;;
59585;SDS011;45408;52.686;7.310;2024-03-08T08:24:58;26.30;;;13.80;;
59585;SDS011;45408;52.686;7.310;2024-03-08T08:27:25;28.52;;;14.80;;
59585;SDS011;45408;52.686;7.310;2024-03-08T08:29:52;33.92;;;14.20;;
59585;SDS011;45408;52.686;7.310;2024-03-08T08:32:18;28.45;;;13.10;;
59585;SDS011;45408;52.686;7.310;2024-03-08T08:34:46;31.50;;;16.02;;
59585;SDS011;45408;52.686;7.310;2024-03-08T08:37:13;29.52;;;15.77;;
59585;SDS011;45408;52.686;7.310;2024-03-08T08:39:39;28.67;;;15.30;;
59585;SDS011;45408;52.686;7.310;2024-03-08T08:42:06;28.52;;;13.93;;
59585;SDS011;45408;52.686;7.310;2024-03-08T08:44:35;23.48;;;12.85;;
59585;SDS011;45408;52.686;7.310;2024-03-08T08:47:02;24.55;;;12.88;;
59585;SDS011;45408;52.686;7.310;2024-03-08T08:49:38;30.85;;;14.80;;
59585;SDS011;45408;52.686;7.310;2024-03-08T08:52:04;28.42;;;13.73;;
59585;SDS011;45408;52.686;7.310;2024-03-08T08:54:41;26.52;;;14.00;;
59585;SDS011;45408;52.686;7.310;2024-03-08T08:57:08;25.80;;;13.00;;
59585;SDS011;45408;52.686;7.310;2024-03-08T08:59:35;26.42;;;13.68;;
59585;SDS011;45408;52.686;7.310;2024-03-08T09:02:02;29.42;;;13.48;;
59585;SDS011;45408;52.686;7.310;2024-03-08T09:04:30;34.95;;;15.32;;
59585;SDS011;45408;52.686;7.310;2024-03-08T09:06:59;23.20;;;11.77;;
59585;SDS011;45408;52.686;7.310;2024-03-08T09:09:27;26.42;;;11.82;;
59585;SDS011;45408;52.686;7.310;2024-03-08T09:11:53;31.02;;;14.40;;
59585;SDS011;45408;52.686;7.310;2024-03-08T09:14:20;25.90;;;13.48;;
59585;SDS011;45408;52.686;7.310;2024-03-08T09:16:47;26.00;;;14.40;;
59585;SDS011;45408;52.686;7.310;2024-03-08T09:19:14;28.92;;;13.82;;
59585;SDS011;45408;52.686;7.310;2024-03-08T09:21:41;29.33;;;15.32;;
59585;SDS011;45408;52.686;7.310;2024-03-08T09:24:07;18.08;;;10.18;;
59585;SDS011;45408;52.686;7.310;2024-03-08T09:26:34;26.42;;;13.93;;
59585;SDS011;45408;52.686;7.310;2024-03-08T09:29:00;34.40;;;15.73;;
59585;SDS011;45408;52.686;7.310;2024-03-08T09:31:27;24.42;;;12.40;;
59585;SDS011;45408;52.686;7.310;2024-03-08T09:33:53;27.88;;;15.07;;
59585;SDS011;45408;52.686;7.310;2024-03-08T09:36:20;24.75;;;13.40;;
59585;SDS011;45408;52.686;7.310;2024-03-08T09:38:46;20.60;;;9.90;;
59585;SDS011;45408;52.686;7.310;2024-03-08T09:41:13;32.92;;;17.45;;
59585;SDS011;45408;52.686;7.310;2024-03-08T09:43:40;27.17;;;14.77;;
59585;SDS011;45408;52.686;7.310;2024-03-08T09:46:07;30.25;;;15.73;;
59585;SDS011;45408;52.686;7.310;2024-03-08T09:48:34;27.92;;;14.40;;
59585;SDS011;45408;52.686;7.310;2024-03-08T09:51:00;28.90;;;14.93;;
59585;SDS011;45408;52.686;7.310;2024-03-08T09:53:28;30.35;;;14.82;;
59585;SDS011;45408;52.686;7.310;2024-03-08T09:55:54;30.30;;;16.20;;
59585;SDS011;45408;52.686;7.310;2024-03-08T09:58:21;26.70;;;14.18;;
59585;SDS011;45408;52.686;7.310;2024-03-08T10:00:59;37.88;;;16.33;;
59585;SDS011;45408;52.686;7.310;2024-03-08T10:03:30;32.45;;;14.73;;
59585;SDS011;45408;52.686;7.310;2024-03-08T10:06:01;33.63;;;17.02;;
59585;SDS011;45408;52.686;7.310;2024-03-08T10:08:28;29.38;;;15.88;;
59585;SDS011;45408;52.686;7.310;2024-03-08T10:10:57;27.00;;;14.60;;
59585;SDS011;45408;52.686;7.310;2024-03-08T10:13:27;27.33;;;13.77;;
59585;SDS011;45408;52.686;7.310;2024-03-08T10:15:54;28.10;;;15.30;;
59585;SDS011;45408;52.686;7.310;2024-03-08T10:18:21;29.23;;;14.85;;
59585;SDS011;45408;52.686;7.310;2024-03-08T10:21:01;27.27;;;14.52;;
59585;SDS011;45408;52.686;7.310;2024-03-08T10:23:30;31.52;;;15.35;;
59585;SDS011;45408;52.686;7.310;2024-03-08T10:25:58;32.85;;;16.90;;
59585;SDS011;45408;52.686;7.310;2024-03-08T10:28:25;29.33;;;14.68;;
59585;SDS011;45408;52.686;7.310;2024-03-08T10:30:51;27.42;;;14.23;;
59585;SDS011;45408;52.686;7.310;2024-03-08T10:33:18;27.05;;;15.02;;
59585;SDS011;45408;52.686;7.310;2024-03-08T10:35:44;30.58;;;15.43;;
59585;SDS011;45408;52.686;7.310;2024-03-08T10:38:11;29.45;;;16.42;;
59585;SDS011;45408;52.686;7.310;2024-03-08T10:40:38;31.67;;;16.27;;
59585;SDS011;45408;52.686;7.310;2024-03-08T10:43:06;30.00;;;16.33;;
59585;SDS011;45408;52.686;7.310;2024-03-08T10:45:38;28.20;;;15.40;;
59585;SDS011;45408;52.686;7.310;2024-03-08T10:50:44;23.90;;;13.75;;
59585;SDS011;45408;52.686;7.310;2024-03-08T10:53:13;32.50;;;18.00;;
59585;SDS011;45408;52.686;7.310;2024-03-08T10:55:40;29.17;;;15.68;;
59585;SDS011;45408;52.686;7.310;2024-03-08T10:58:07;30.90;;;17.05;;
59585;SDS011;45408;52.686;7.310;2024-03-08T11:00:34;27.77;;;16.42;;
59585;SDS011;45408;52.686;7.310;2024-03-08T11:03:02;30.20;;;16.83;;
59585;SDS011;45408;52.686;7.310;2024-03-08T11:08:27;33.35;;;16.10;;
59585;SDS011;45408;52.686;7.310;2024-03-08T11:10:53;28.48;;;16.67;;
59585;SDS011;45408;52.686;7.310;2024-03-08T11:13:38;36.20;;;17.05;;
59585;SDS011;45408;52.686;7.310;2024-03-08T11:16:07;27.40;;;14.90;;
59585;SDS011;45408;52.686;7.310;2024-03-08T11:18:35;26.98;;;15.70;;
59585;SDS011;45408;52.686;7.310;2024-03-08T11:21:04;31.30;;;16.05;;
59585;SDS011;45408;52.686;7.310;2024-03-08T11:23:33;27.52;;;14.80;;
59585;SDS011;45408;52.686;7.310;2024-03-08T11:26:01;33.60;;;16.95;;
59585;SDS011;45408;52.686;7.310;2024-03-08T11:28:31;28.27;;;15.45;;
59585;SDS011;45408;52.686;7.310;2024-03-08T11:33:31;28.80;;;15.82;;
59585;SDS011;45408;52.686;7.310;2024-03-08T11:38:41;33.70;;;15.70;;
59585;SDS011;45408;52.686;7.310;2024-03-08T11:41:10;30.90;;;15.30;;
59585;SDS011;45408;52.686;7.310;2024-03-08T11:43:44;29.20;;;15.88;;
59585;SDS011;45408;52.686;7.310;2024-03-08T11:46:11;34.60;;;20.27;;
59585;SDS011;45408;52.686;7.310;2024-03-08T11:48:41;33.60;;;17.83;;
59585;SDS011;45408;52.686;7.310;2024-03-08T11:51:08;31.65;;;17.30;;
59585;SDS011;45408;52.686;7.310;2024-03-08T11:53:38;34.38;;;20.48;;
59585;SDS011;45408;52.686;7.310;2024-03-08T11:56:09;30.52;;;16.98;;
59585;SDS011;45408;52.686;7.310;2024-03-08T11:58:39;33.40;;;17.55;;
59585;SDS011;45408;52.686;7.310;2024-03-08T12:01:07;26.55;;;14.65;;
59585;SDS011;45408;52.686;7.310;2024-03-08T12:03:43;30.52;;;15.48;;
59585;SDS011;45408;52.686;7.310;2024-03-08T12:06:10;31.15;;;17.23;;
59585;SDS011;45408;52.686;7.310;2024-03-08T12:08:36;27.02;;;15.68;;
59585;SDS011;45408;52.686;7.310;2024-03-08T12:11:03;32.03;;;17.05;;
59585;SDS011;45408;52.686;7.310;2024-03-08T12:13:31;31.08;;;16.08;;
59585;SDS011;45408;52.686;7.310;2024-03-08T12:16:00;33.63;;;17.60;;
59585;SDS011;45408;52.686;7.310;2024-03-08T12:18:37;31.60;;;17.80;;
59585;SDS011;45408;52.686;7.310;2024-03-08T12:21:10;33.72;;;17.83;;
59585;SDS011;45408;52.686;7.310;2024-03-08T12:23:38;30.63;;;16.50;;
59585;SDS011;45408;52.686;7.310;2024-03-08T12:26:12;25.00;;;13.70;;
59585;SDS011;45408;52.686;7.310;2024-03-08T12:28:40;26.27;;;14.80;;
59585;SDS011;45408;52.686;7.310;2024-03-08T12:31:07;28.65;;;16.02;;
59585;SDS011;45408;52.686;7.310;2024-03-08T12:33:37;27.17;;;17.17;;
59585;SDS011;45408;52.686;7.310;2024-03-08T12:36:14;29.05;;;16.88;;
59585;SDS011;45408;52.686;7.310;2024-03-08T12:38:45;25.38;;;14.85;;
59585;SDS011;45408;52.686;7.310;2024-03-08T12:41:14;27.90;;;16.02;;
59585;SDS011;45408;52.686;7.310;2024-03-08T12:43:41;25.65;;;14.95;;
59585;SDS011;45408;52.686;7.310;2024-03-08T12:46:08;26.65;;;13.60;;
59585;SDS011;45408;52.686;7.310;2024-03-08T12:48:35;27.00;;;15.15;;
59585;SDS011;45408;52.686;7.310;2024-03-08T12:51:03;25.85;;;15.30;;
59585;SDS011;45408;52.686;7.310;2024-03-08T12:53:29;26.00;;;14.38;;
59585;SDS011;45408;52.686;7.310;2024-03-08T12:55:56;26.88;;;15.18;;
59585;SDS011;45408;52.686;7.310;2024-03-08T12:58:23;23.33;;;14.77;;
59585;SDS011;45408;52.686;7.310;2024-03-08T13:00:49;28.73;;;15.18;;
59585;SDS011;45408;52.686;7.310;2024-03-08T13:03:19;24.60;;;14.20;;
59585;SDS011;45408;52.686;7.310;2024-03-08T13:05:46;24.52;;;14.10;;
59585;SDS011;45408;52.686;7.310;2024-03-08T13:08:12;22.70;;;13.52;;
59585;SDS011;45408;52.686;7.310;2024-03-08T13:10:39;22.95;;;13.25;;
59585;SDS011;45408;52.686;7.310;2024-03-08T13:13:06;26.13;;;14.57;;
59585;SDS011;45408;52.686;7.310;2024-03-08T13:15:33;22.63;;;14.02;;
59585;SDS011;45408;52.686;7.310;2024-03-08T13:18:00;22.55;;;12.32;;
59585;SDS011;45408;52.686;7.310;2024-03-08T13:20:26;21.55;;;13.10;;
59585;SDS011;45408;52.686;7.310;2024-03-08T13:23:05;22.13;;;13.40;;
59585;SDS011;45408;52.686;7.310;2024-03-08T13:25:33;22.85;;;12.32;;
59585;SDS011;45408;52.686;7.310;2024-03-08T13:27:59;23.83;;;12.07;;
59585;SDS011;45408;52.686;7.310;2024-03-08T13:30:27;23.25;;;13.13;;
59585;SDS011;45408;52.686;7.310;2024-03-08T13:32:53;26.95;;;13.70;;
59585;SDS011;45408;52.686;7.310;2024-03-08T13:35:20;24.08;;;13.18;;
59585;SDS011;45408;52.686;7.310;2024-03-08T13:37:52;19.73;;;12.32;;
59585;SDS011;45408;52.686;7.310;2024-03-08T13:40:19;24.38;;;12.43;;
59585;SDS011;45408;52.686;7.310;2024-03-08T13:42:47;18.13;;;11.73;;
59585;SDS011;45408;52.686;7.310;2024-03-08T13:45:15;23.67;;;13.85;;
59585;SDS011;45408;52.686;7.310;2024-03-08T13:47:48;15.55;;;9.52;;
59585;SDS011;45408;52.686;7.310;2024-03-08T13:50:15;24.08;;;13.85;;
59585;SDS011;45408;52.686;7.310;2024-03-08T13:52:47;23.65;;;13.77;;
59585;SDS011;45408;52.686;7.310;2024-03-08T13:55:20;25.00;;;12.75;;
59585;SDS011;45408;52.686;7.310;2024-03-08T13:57:48;23.70;;;13.50;;
59585;SDS011;45408;52.686;7.310;2024-03-08T14:00:15;26.83;;;14.70;;
59585;SDS011;45408;52.686;7.310;2024-03-08T14:02:42;21.85;;;13.60;;
59585;SDS011;45408;52.686;7.310;2024-03-08T14:05:09;24.95;;;14.10;;
59585;SDS011;45408;52.686;7.310;2024-03-08T14:07:37;31.05;;;16.95;;
59585;SDS011;45408;52.686;7.310;2024-03-08T14:10:04;25.35;;;14.60;;
59585;SDS011;45408;52.686;7.310;2024-03-08T14:14:59;22.00;;;11.95;;
59585;SDS011;45408;52.686;7.310;2024-03-08T14:17:26;23.27;;;14.23;;
59585;SDS011;45408;52.686;7.310;2024-03-08T14:19:53;26.20;;;15.40;;
59585;SDS011;45408;52.686;7.310;2024-03-08T14:22:21;24.75;;;13.23;;
59585;SDS011;45408;52.686;7.310;2024-03-08T14:24:47;24.48;;;15.43;;
59585;SDS011;45408;52.686;7.310;2024-03-08T14:27:15;29.63;;;15.43;;
59585;SDS011;45408;52.686;7.310;2024-03-08T14:32:11;21.95;;;12.90;;
59585;SDS011;45408;52.686;7.310;2024-03-08T14:34:39;24.80;;;14.20;;
59585;SDS011;45408;52.686;7.310;2024-03-08T14:37:05;26.58;;;14.27;;
59585;SDS011;45408;52.686;7.310;2024-03-08T14:39:38;24.73;;;14.70;;
59585;SDS011;45408;52.686;7.310;2024-03-08T14:42:04;24.35;;;12.77;;
59585;SDS011;45408;52.686;7.310;2024-03-08T14:44:32;20.80;;;10.57;;